Time;durP1;ratioP1;P1;durP2;ratioP2;P2;SDS_P1;SDS_P2;PMS_P1;PMS_P2;Temp;Humidity;BMP_temperature;BMP_pressure;BME280_temperature;BME280_humidity;BME280_pressure;Samples;Min_cycle;Max_cycle;Signal;HPM_P1;HPM_P2
2023/04/05 00:00:56;;;;;;;17.20;14.85;;;;;;;;;;4904101;29;20530;-76
2023/04/05 00:03:21;;;;;;;15.07;13.48;;;;;;;;;;4890186;29;20025;-76
2023/04/05 00:05:48;;;;;;;16.02;14.35;;;;;;;;;;4919804;29;20032;-76
2023/04/05 00:08:22;;;;;;;19.02;15.52;;;;;;;;;;4905380;29;20034;-77
2023/04/05 00:10:47;;;;;;;18.80;15.60;;;;;;;;;;4904765;29;20035;-77
2023/04/05 00:13:12;;;;;;;16.60;14.77;;;;;;;;;;4903701;29;20458;-76
2023/04/05 00:15:38;;;;;;;16.48;14.80;;;;;;;;;;4890066;29;20486;-77
2023/04/05 00:18:03;;;;;;;18.40;16.45;;;;;;;;;;4903807;29;20342;-76
2023/04/05 00:20:28;;;;;;;17.45;15.38;;;;;;;;;;4904394;29;20036;-76
2023/04/05 00:22:53;;;;;;;17.58;15.15;;;;;;;;;;4896397;29;20038;-77
2023/04/05 00:25:20;;;;;;;16.92;15.10;;;;;;;;;;4897303;29;20035;-76
2023/04/05 00:27:46;;;;;;;14.18;12.70;;;;;;;;;;4891479;29;20099;-75
2023/04/05 00:30:11;;;;;;;18.70;16.45;;;;;;;;;;4904263;29;20127;-76
2023/04/05 00:32:36;;;;;;;18.20;15.57;;;;;;;;;;4902165;29;20043;-76
2023/04/05 00:35:02;;;;;;;17.95;15.00;;;;;;;;;;4887585;29;20028;-76
2023/04/05 00:37:27;;;;;;;18.55;15.95;;;;;;;;;;4896302;29;20020;-76
2023/04/05 00:39:52;;;;;;;19.13;15.85;;;;;;;;;;4903669;29;20028;-77
2023/04/05 00:42:18;;;;;;;14.68;13.02;;;;;;;;;;4904406;29;20035;-76
2023/04/05 00:44:43;;;;;;;15.95;14.27;;;;;;;;;;4905166;29;20024;-76
2023/04/05 00:47:08;;;;;;;16.20;14.50;;;;;;;;;;4908508;29;20020;-76
2023/04/05 00:49:35;;;;;;;17.67;15.95;;;;;;;;;;4906674;29;20585;-76
2023/04/05 00:52:00;;;;;;;15.65;13.55;;;;;;;;;;4896347;29;20481;-77
2023/04/05 00:54:28;;;;;;;16.23;13.95;;;;;;;;;;4902653;29;20156;-76
2023/04/05 00:56:58;;;;;;;15.57;13.75;;;;;;;;;;4907354;29;20031;-76
2023/04/05 00:59:23;;;;;;;15.50;13.85;;;;;;;;;;4908322;29;20035;-76
2023/04/05 01:01:54;;;;;;;16.15;12.88;;;;;;;;;;4906473;29;20024;-75
2023/04/05 01:04:24;;;;;;;15.50;13.63;;;;;;;;;;4905457;29;20024;-75
2023/04/05 01:07:03;;;;;;;13.20;11.85;;;;;;;;;;4900362;29;20063;-76
2023/04/05 01:09:47;;;;;;;15.38;13.80;;;;;;;;;;4898936;29;20048;-76
2023/04/05 01:12:16;;;;;;;15.90;12.48;;;;;;;;;;4893799;29;20032;-76
2023/04/05 01:14:45;;;;;;;15.93;12.48;;;;;;;;;;4908404;29;20056;-76
2023/04/05 01:17:10;;;;;;;14.57;13.18;;;;;;;;;;4905229;29;20024;-76
2023/04/05 01:19:40;;;;;;;16.17;13.77;;;;;;;;;;4890263;29;20025;-76
2023/04/05 01:22:25;;;;;;;15.48;13.20;;;;;;;;;;4902756;29;20020;-76
2023/04/05 01:25:01;;;;;;;14.88;13.27;;;;;;;;;;4900649;29;20024;-76
2023/04/05 01:27:45;;;;;;;16.67;14.02;;;;;;;;;;4902624;29;20044;-77
2023/04/05 01:30:16;;;;;;;15.20;12.98;;;;;;;;;;4905426;29;20648;-76
2023/04/05 01:32:44;;;;;;;14.07;12.27;;;;;;;;;;4893385;29;20024;-76
2023/04/05 01:35:16;;;;;;;13.00;11.70;;;;;;;;;;4895039;29;20406;-77
2023/04/05 01:37:43;;;;;;;13.32;12.02;;;;;;;;;;4906709;29;20535;-77
2023/04/05 01:40:09;;;;;;;13.50;12.10;;;;;;;;;;4899982;29;20029;-77
2023/04/05 01:42:35;;;;;;;14.40;11.75;;;;;;;;;;4899503;29;20028;-76
2023/04/05 01:45:00;;;;;;;12.10;10.90;;;;;;;;;;4903137;29;20423;-77
2023/04/05 01:47:25;;;;;;;11.75;10.60;;;;;;;;;;4891098;29;20028;-78
2023/04/05 01:49:51;;;;;;;13.48;12.18;;;;;;;;;;4903854;29;20067;-76
2023/04/05 01:52:16;;;;;;;11.68;10.55;;;;;;;;;;4905189;29;20046;-76
2023/04/05 01:54:42;;;;;;;11.05;10.05;;;;;;;;;;4891925;29;20442;-76
2023/04/05 01:57:07;;;;;;;11.65;10.45;;;;;;;;;;4898638;29;20514;-76
2023/04/05 01:59:32;;;;;;;10.48;9.48;;;;;;;;;;4899082;29;20028;-76
2023/04/05 02:01:58;;;;;;;10.77;9.77;;;;;;;;;;4896486;29;20043;-76
2023/04/05 02:04:23;;;;;;;11.13;10.05;;;;;;;;;;4897825;29;20309;-76
2023/04/05 02:06:48;;;;;;;9.88;9.02;;;;;;;;;;4904773;29;20056;-75
2023/04/05 02:09:13;;;;;;;10.15;9.13;;;;;;;;;;4895761;29;20387;-76
2023/04/05 02:11:39;;;;;;;9.95;9.00;;;;;;;;;;4893830;29;20020;-77
2023/04/05 02:14:04;;;;;;;9.90;9.00;;;;;;;;;;4891801;29;20028;-75
2023/04/05 02:16:32;;;;;;;10.15;9.10;;;;;;;;;;4902446;29;20515;-77
2023/04/05 02:18:58;;;;;;;9.70;8.80;;;;;;;;;;4905219;29;20038;-77
2023/04/05 02:21:24;;;;;;;9.90;9.00;;;;;;;;;;4896874;29;20036;-78
2023/04/05 02:23:50;;;;;;;10.63;9.63;;;;;;;;;;4884321;29;20036;-77
2023/04/05 02:26:15;;;;;;;9.45;8.65;;;;;;;;;;4900387;29;20398;-77
2023/04/05 02:28:41;;;;;;;8.77;7.88;;;;;;;;;;4889665;29;20084;-78
2023/04/05 02:31:13;;;;;;;9.77;8.77;;;;;;;;;;4906832;29;20028;-76
2023/04/05 02:33:38;;;;;;;9.15;8.25;;;;;;;;;;4897606;29;20443;-77
2023/04/05 02:36:05;;;;;;;10.15;8.60;;;;;;;;;;4896805;29;20025;-79
2023/04/05 02:38:31;;;;;;;8.20;7.50;;;;;;;;;;4893611;29;20494;-76
2023/04/05 02:40:56;;;;;;;8.38;7.57;;;;;;;;;;4904363;29;20030;-77
2023/04/05 02:43:21;;;;;;;7.70;7.10;;;;;;;;;;4903932;29;20064;-76
2023/04/05 02:45:47;;;;;;;7.43;6.82;;;;;;;;;;4905459;29;20038;-76
2023/04/05 02:48:12;;;;;;;8.80;7.90;;;;;;;;;;4905865;29;20024;-77
2023/04/05 02:50:37;;;;;;;7.60;6.93;;;;;;;;;;4905787;29;20112;-78
2023/04/05 02:53:03;;;;;;;7.95;7.15;;;;;;;;;;4905352;29;20518;-77
2023/04/05 02:55:29;;;;;;;7.22;6.63;;;;;;;;;;4904607;29;20024;-77
2023/04/05 02:57:59;;;;;;;7.78;7.18;;;;;;;;;;4888732;29;20076;-75
2023/04/05 03:00:24;;;;;;;;;;;;;;;;;;4900880;29;20449;-76
2023/04/05 03:02:49;;;;;;;6.55;5.95;;;;;;;;;;4893806;29;20660;-76
2023/04/05 03:05:17;;;;;;;5.85;5.35;;;;;;;;;;4899030;29;20475;-76
2023/04/05 03:07:45;;;;;;;7.05;6.45;;;;;;;;;;4900049;29;20076;-74
2023/04/05 03:10:12;;;;;;;6.60;6.10;;;;;;;;;;4885844;29;20541;-76
2023/04/05 03:12:38;;;;;;;7.15;6.45;;;;;;;;;;4903681;29;20019;-76
2023/04/05 03:15:03;;;;;;;7.03;6.32;;;;;;;;;;4894744;29;20052;-76
2023/04/05 03:17:28;;;;;;;6.97;6.25;;;;;;;;;;4901353;29;20020;-76
2023/04/05 03:19:53;;;;;;;6.90;6.30;;;;;;;;;;4897206;29;20028;-77
2023/04/05 03:22:20;;;;;;;7.45;6.85;;;;;;;;;;4898470;29;20024;-76
2023/04/05 03:24:45;;;;;;;7.63;6.93;;;;;;;;;;4885867;29;20036;-77
2023/04/05 03:27:12;;;;;;;7.68;6.40;;;;;;;;;;4897628;29;20496;-76
2023/04/05 03:29:37;;;;;;;7.43;6.82;;;;;;;;;;4905132;29;20035;-76
2023/04/05 03:32:02;;;;;;;8.25;7.57;;;;;;;;;;4896287;29;20021;-77
2023/04/05 03:34:29;;;;;;;8.15;6.65;;;;;;;;;;4891222;29;20025;-77
2023/04/05 03:36:54;;;;;;;7.30;6.70;;;;;;;;;;4905572;29;20054;-75
2023/04/05 03:39:20;;;;;;;6.25;5.75;;;;;;;;;;4899172;29;20060;-76
2023/04/05 03:41:45;;;;;;;6.78;6.28;;;;;;;;;;4905312;29;20616;-76
2023/04/05 03:44:11;;;;;;;6.75;6.15;;;;;;;;;;4905270;29;20617;-76
2023/04/05 03:46:36;;;;;;;6.88;6.38;;;;;;;;;;4907702;29;20507;-76
2023/04/05 03:49:04;;;;;;;6.60;6.07;;;;;;;;;;4906306;29;20043;-77
2023/04/05 03:51:33;;;;;;;7.25;6.65;;;;;;;;;;4892915;29;20032;-75
2023/04/05 03:54:05;;;;;;;6.18;5.68;;;;;;;;;;4910104;29;20032;-78
2023/04/05 03:56:34;;;;;;;7.25;6.65;;;;;;;;;;4906035;29;20577;-76
2023/04/05 03:58:59;;;;;;;6.45;5.95;;;;;;;;;;4905376;29;20023;-76
2023/04/05 04:01:24;;;;;;;6.93;6.38;;;;;;;;;;4903737;29;20528;-75
2023/04/05 04:03:50;;;;;;;7.07;6.57;;;;;;;;;;4892066;29;20095;-76
2023/04/05 04:06:15;;;;;;;6.57;6.07;;;;;;;;;;4903216;29;20063;-76
2023/04/05 04:08:40;;;;;;;6.68;6.07;;;;;;;;;;4902454;29;20032;-76
2023/04/05 04:11:06;;;;;;;6.68;6.18;;;;;;;;;;4894480;29;20036;-77
2023/04/05 04:13:31;;;;;;;6.45;5.95;;;;;;;;;;4898312;29;20787;-76
2023/04/05 04:15:56;;;;;;;6.95;6.35;;;;;;;;;;4904347;29;20028;-76
2023/04/05 04:18:22;;;;;;;6.45;5.95;;;;;;;;;;4903765;29;20371;-76
2023/04/05 04:20:47;;;;;;;7.30;6.70;;;;;;;;;;4905069;29;20028;-76
2023/04/05 04:23:13;;;;;;;6.00;5.50;;;;;;;;;;4907484;29;20031;-76
2023/04/05 04:25:40;;;;;;;6.75;6.25;;;;;;;;;;4908045;29;20107;-77
2023/04/05 04:28:06;;;;;;;6.55;5.95;;;;;;;;;;4906332;29;20076;-76
2023/04/05 04:30:33;;;;;;;7.05;6.45;;;;;;;;;;4907569;29;20379;-76
2023/04/05 04:33:03;;;;;;;6.97;5.80;;;;;;;;;;4906393;29;20522;-76
2023/04/05 04:35:28;;;;;;;;;;;;;;;;;;4889009;29;20075;-76
2023/04/05 04:37:56;;;;;;;6.90;6.30;;;;;;;;;;4887735;29;19955;-76
2023/04/05 04:40:24;;;;;;;6.88;6.30;;;;;;;;;;4892356;29;20017;-77
2023/04/05 04:42:50;;;;;;;7.03;6.32;;;;;;;;;;4894975;29;20021;-76
2023/04/05 04:45:16;;;;;;;6.65;6.15;;;;;;;;;;4904030;29;20509;-77
2023/04/05 04:47:42;;;;;;;6.30;5.80;;;;;;;;;;4901105;29;20024;-76
2023/04/05 04:50:09;;;;;;;7.20;6.60;;;;;;;;;;4900659;29;20458;-77
2023/04/05 04:52:34;;;;;;;6.95;6.35;;;;;;;;;;4899745;29;20024;-77
2023/04/05 04:55:01;;;;;;;7.15;6.55;;;;;;;;;;4895355;29;20106;-77
2023/04/05 04:57:26;;;;;;;6.88;6.18;;;;;;;;;;4904364;29;20039;-76
2023/04/05 04:59:52;;;;;;;7.22;6.70;;;;;;;;;;4906234;29;20531;-77
2023/04/05 05:02:17;;;;;;;8.00;6.10;;;;;;;;;;4905638;29;20020;-76
2023/04/05 05:04:43;;;;;;;6.90;6.13;;;;;;;;;;4905889;29;20028;-77
2023/04/05 05:07:09;;;;;;;7.13;6.53;;;;;;;;;;4906836;29;20040;-75
2023/04/05 05:09:35;;;;;;;6.68;6.00;;;;;;;;;;4900811;29;20490;-76
2023/04/05 05:12:00;;;;;;;6.50;6.00;;;;;;;;;;4901374;29;20036;-76
2023/04/05 05:14:25;;;;;;;6.57;6.07;;;;;;;;;;4898658;29;20035;-76
2023/04/05 05:16:53;;;;;;;6.25;5.75;;;;;;;;;;4893472;29;20028;-75
2023/04/05 05:19:18;;;;;;;6.53;6.00;;;;;;;;;;4894390;29;20066;-76
2023/04/05 05:21:45;;;;;;;5.88;5.38;;;;;;;;;;4905203;29;20491;-76
2023/04/05 05:24:13;;;;;;;6.00;5.40;;;;;;;;;;4906758;29;20020;-76
2023/04/05 05:26:38;;;;;;;5.80;5.38;;;;;;;;;;4900566;29;20406;-76
2023/04/05 05:29:03;;;;;;;6.10;5.60;;;;;;;;;;4906900;29;20037;-76
2023/04/05 05:31:31;;;;;;;6.50;5.90;;;;;;;;;;4904787;29;20541;-76
2023/04/05 05:33:56;;;;;;;6.57;6.07;;;;;;;;;;4896743;29;20043;-76
2023/04/05 05:36:24;;;;;;;5.60;5.18;;;;;;;;;;4902883;29;20024;-76
2023/04/05 05:38:50;;;;;;;5.75;5.30;;;;;;;;;;4900368;29;20574;-76
2023/04/05 05:41:15;;;;;;;6.05;5.55;;;;;;;;;;4897833;29;20080;-76
2023/04/05 05:43:40;;;;;;;5.55;5.05;;;;;;;;;;4895356;29;20522;-77
2023/04/05 05:46:05;;;;;;;5.50;5.10;;;;;;;;;;4897868;29;20087;-76
2023/04/05 05:48:32;;;;;;;4.68;4.32;;;;;;;;;;4899027;29;20064;-76
2023/04/05 05:51:00;;;;;;;5.20;4.80;;;;;;;;;;4893114;29;20525;-77
2023/04/05 05:53:25;;;;;;;4.53;4.13;;;;;;;;;;4903190;29;20072;-77
2023/04/05 05:55:51;;;;;;;3.92;3.63;;;;;;;;;;4886743;29;20486;-77
2023/04/05 05:58:16;;;;;;;3.60;3.30;;;;;;;;;;4898843;29;20636;-77
2023/04/05 06:00:41;;;;;;;3.63;3.35;;;;;;;;;;4896591;29;20032;-77
2023/04/05 06:03:06;;;;;;;3.70;3.40;;;;;;;;;;4901345;29;20555;-77
2023/04/05 06:05:32;;;;;;;3.80;3.42;;;;;;;;;;4906467;29;20024;-77
2023/04/05 06:07:57;;;;;;;3.30;3.05;;;;;;;;;;4907279;29;20043;-77
2023/04/05 06:10:23;;;;;;;3.97;3.65;;;;;;;;;;4888352;29;20036;-77
2023/04/05 06:12:49;;;;;;;3.60;3.30;;;;;;;;;;4901530;29;20071;-76
2023/04/05 06:15:14;;;;;;;3.70;3.40;;;;;;;;;;4903332;29;20107;-76
2023/04/05 06:17:41;;;;;;;3.75;3.45;;;;;;;;;;4903938;29;20189;-76
2023/04/05 06:20:08;;;;;;;3.33;3.13;;;;;;;;;;4905575;29;20020;-77
2023/04/05 06:22:35;;;;;;;3.58;3.28;;;;;;;;;;4889159;29;20426;-77
2023/04/05 06:25:00;;;;;;;3.30;3.00;;;;;;;;;;4900387;29;20031;-76
2023/04/05 06:27:25;;;;;;;2.13;1.92;;;;;;;;;;4899560;29;20036;-76
2023/04/05 06:29:51;;;;;;;2.30;2.10;;;;;;;;;;4896531;29;20168;-76
2023/04/05 06:32:16;;;;;;;2.30;2.10;;;;;;;;;;4905520;29;20509;-78
2023/04/05 06:34:41;;;;;;;3.63;2.55;;;;;;;;;;4893155;29;20042;-78
2023/04/05 06:37:07;;;;;;;2.60;2.40;;;;;;;;;;4900829;29;20039;-77
2023/04/05 06:39:32;;;;;;;2.47;2.28;;;;;;;;;;4890855;29;20068;-77
2023/04/05 06:41:57;;;;;;;2.53;2.33;;;;;;;;;;4897190;29;20024;-79
2023/04/05 06:44:23;;;;;;;2.67;2.47;;;;;;;;;;4902972;29;20020;-79
2023/04/05 06:46:48;;;;;;;2.85;2.60;;;;;;;;;;4898477;29;20040;-79
2023/04/05 06:49:13;;;;;;;2.25;2.05;;;;;;;;;;4902043;29;20055;-78
2023/04/05 06:51:39;;;;;;;1.80;1.70;;;;;;;;;;4901016;29;20024;-76
2023/04/05 06:54:04;;;;;;;1.88;1.77;;;;;;;;;;4901017;29;20845;-77
2023/04/05 06:56:29;;;;;;;2.03;1.90;;;;;;;;;;4901223;29;20725;-81
2023/04/05 06:58:56;;;;;;;2.15;1.95;;;;;;;;;;4905074;29;20046;-79
2023/04/05 07:01:23;;;;;;;2.42;2.30;;;;;;;;;;4901508;29;20481;-79
2023/04/05 07:03:49;;;;;;;2.50;2.30;;;;;;;;;;4902096;29;20051;-79
2023/04/05 07:06:14;;;;;;;2.70;1.90;;;;;;;;;;4896220;29;20054;-78
2023/04/05 07:08:39;;;;;;;2.65;2.25;;;;;;;;;;4896992;29;20415;-78
2023/04/05 07:11:05;;;;;;;2.25;2.13;;;;;;;;;;4893978;29;21601;-78
2023/04/05 07:13:31;;;;;;;3.88;2.35;;;;;;;;;;4899425;29;20333;-80
2023/04/05 07:16:00;;;;;;;2.63;2.42;;;;;;;;;;4895729;29;20024;-78
2023/04/05 07:18:26;;;;;;;2.10;1.90;;;;;;;;;;4900799;29;20075;-80
2023/04/05 07:20:53;;;;;;;1.88;1.60;;;;;;;;;;4897507;29;20028;-80
2023/04/05 07:23:18;;;;;;;2.13;1.95;;;;;;;;;;4902926;29;20028;-79
2023/04/05 07:25:44;;;;;;;1.90;1.80;;;;;;;;;;4909908;29;20031;-79
2023/04/05 07:28:09;;;;;;;2.22;2.03;;;;;;;;;;4915642;29;20028;-82
2023/04/05 07:30:35;;;;;;;2.95;1.60;;;;;;;;;;4920093;29;20529;-82
2023/04/05 07:33:00;;;;;;;3.45;2.75;;;;;;;;;;4911948;29;20113;-81
2023/04/05 07:35:27;;;;;;;2.20;2.00;;;;;;;;;;4903621;29;20589;-78
2023/04/05 07:37:53;;;;;;;2.60;2.40;;;;;;;;;;4900708;29;20028;-81
2023/04/05 07:40:20;;;;;;;2.22;2.08;;;;;;;;;;4910671;29;20536;-80
2023/04/05 07:42:45;;;;;;;2.17;2.08;;;;;;;;;;4903452;29;20056;-81
2023/04/05 07:45:11;;;;;;;2.30;2.10;;;;;;;;;;4907227;29;20067;-80
2023/04/05 07:47:36;;;;;;;1.80;1.70;;;;;;;;;;4901818;29;20487;-80
2023/04/05 07:50:01;;;;;;;1.85;1.75;;;;;;;;;;4907755;29;20047;-80
2023/04/05 07:52:27;;;;;;;2.08;1.90;;;;;;;;;;4906384;29;20036;-81
2023/04/05 07:54:52;;;;;;;1.83;1.73;;;;;;;;;;4912429;29;20047;-78
2023/04/05 07:57:18;;;;;;;1.50;1.40;;;;;;;;;;4900043;29;20024;-79
2023/04/05 07:59:44;;;;;;;3.33;2.00;;;;;;;;;;4901577;29;20805;-78
2023/04/05 08:02:09;;;;;;;1.98;1.88;;;;;;;;;;4910454;29;20024;-79
2023/04/05 08:04:34;;;;;;;2.38;1.90;;;;;;;;;;4910911;29;20019;-81
2023/04/05 08:07:00;;;;;;;2.85;1.65;;;;;;;;;;4910620;29;20476;-78
2023/04/05 08:09:25;;;;;;;1.60;1.50;;;;;;;;;;4904607;29;20067;-77
2023/04/05 08:11:50;;;;;;;1.10;1.00;;;;;;;;;;4903910;29;20397;-81
2023/04/05 08:14:15;;;;;;;0.95;0.93;;;;;;;;;;4897599;29;20118;-78
2023/04/05 08:16:42;;;;;;;1.33;1.23;;;;;;;;;;4910623;29;20017;-76
2023/04/05 08:19:07;;;;;;;2.10;1.95;;;;;;;;;;4911422;29;20024;-80
2023/04/05 08:21:32;;;;;;;1.50;1.30;;;;;;;;;;4914875;29;20043;-81
2023/04/05 08:23:58;;;;;;;1.23;1.13;;;;;;;;;;4907572;29;20032;-80
2023/04/05 08:26:24;;;;;;;1.95;1.40;;;;;;;;;;4914751;29;20020;-80
2023/04/05 08:28:50;;;;;;;1.67;1.20;;;;;;;;;;4914987;29;20577;-81
2023/04/05 08:31:15;;;;;;;2.88;1.20;;;;;;;;;;4916543;29;20035;-78
2023/04/05 08:33:40;;;;;;;2.53;0.90;;;;;;;;;;4908326;29;20032;-81
2023/04/05 08:36:07;;;;;;;8.57;1.30;;;;;;;;;;4904645;29;20075;-78
2023/04/05 08:38:32;;;;;;;1.15;1.05;;;;;;;;;;4903397;29;20052;-77
2023/04/05 08:41:05;;;;;;;1.02;1.00;;;;;;;;;;4898512;29;20832;-80
2023/04/05 08:43:31;;;;;;;1.30;1.20;;;;;;;;;;4911609;29;20025;-80
2023/04/05 08:45:57;;;;;;;1.40;1.30;;;;;;;;;;4900306;29;20104;-79
2023/04/05 08:48:23;;;;;;;1.50;1.40;;;;;;;;;;4899491;29;20543;-76
2023/04/05 08:50:51;;;;;;;1.45;1.30;;;;;;;;;;4909429;29;20024;-77
2023/04/05 08:53:17;;;;;;;2.47;1.45;;;;;;;;;;4907498;29;20028;-77
2023/04/05 08:55:42;;;;;;;1.35;1.25;;;;;;;;;;4906661;29;20024;-75
2023/04/05 08:58:11;;;;;;;2.35;1.13;;;;;;;;;;4914679;29;20122;-81
2023/04/05 09:00:37;;;;;;;1.27;1.17;;;;;;;;;;4903621;29;20023;-77
2023/04/05 09:03:02;;;;;;;3.78;1.30;;;;;;;;;;4900546;29;20028;-79
2023/04/05 09:05:28;;;;;;;1.23;1.13;;;;;;;;;;4916576;29;20035;-78
2023/04/05 09:07:56;;;;;;;1.42;1.33;;;;;;;;;;4913197;29;20104;-80
2023/04/05 09:10:21;;;;;;;1.15;1.10;;;;;;;;;;4915349;29;20028;-76
2023/04/05 09:12:47;;;;;;;2.25;1.00;;;;;;;;;;4913137;29;20087;-76
2023/04/05 09:15:13;;;;;;;0.65;0.65;;;;;;;;;;4915292;29;20838;-78
2023/04/05 09:17:40;;;;;;;1.27;0.80;;;;;;;;;;4913118;29;20017;-76
2023/04/05 09:20:06;;;;;;;0.70;0.70;;;;;;;;;;4913901;29;20024;-78
2023/04/05 09:22:40;;;;;;;3.78;0.88;;;;;;;;;;4899085;29;20027;-79
2023/04/05 09:25:06;;;;;;;1.10;1.10;;;;;;;;;;4908268;29;20024;-78
2023/04/05 09:27:31;;;;;;;1.20;1.10;;;;;;;;;;4906407;29;20035;-76
2023/04/05 09:29:56;;;;;;;0.80;0.80;;;;;;;;;;4892192;29;20051;-76
2023/04/05 09:32:24;;;;;;;0.90;0.90;;;;;;;;;;4905444;29;20547;-77
2023/04/05 09:34:52;;;;;;;1.02;1.02;;;;;;;;;;4895300;29;20449;-76
2023/04/05 09:37:18;;;;;;;1.45;1.10;;;;;;;;;;4893372;29;20044;-77
2023/04/05 09:39:44;;;;;;;1.50;1.40;;;;;;;;;;4898916;29;20056;-77
2023/04/05 09:42:16;;;;;;;1.83;1.73;;;;;;;;;;4894426;29;20029;-77
2023/04/05 09:44:50;;;;;;;1.55;1.30;;;;;;;;;;4891020;29;20431;-78
2023/04/05 09:47:18;;;;;;;1.63;1.52;;;;;;;;;;4897244;29;20047;-75
2023/04/05 09:49:44;;;;;;;1.45;1.35;;;;;;;;;;4887060;29;20053;-76
2023/04/05 09:52:22;;;;;;;2.08;1.80;;;;;;;;;;4899629;29;20024;-77
2023/04/05 09:54:48;;;;;;;2.20;2.00;;;;;;;;;;4904186;29;20024;-76
2023/04/05 09:57:19;;;;;;;1.75;1.65;;;;;;;;;;4901314;29;20861;-77
2023/04/05 09:59:45;;;;;;;2.33;2.13;;;;;;;;;;4891764;29;20021;-74
2023/04/05 10:02:11;;;;;;;1.80;1.70;;;;;;;;;;4893339;29;20035;-76
2023/04/05 10:04:40;;;;;;;1.48;1.38;;;;;;;;;;4891638;29;20067;-77
2023/04/05 10:07:06;;;;;;;1.90;1.80;;;;;;;;;;4893521;29;20049;-76
2023/04/05 10:09:31;;;;;;;1.60;1.50;;;;;;;;;;4903441;29;20594;-76
2023/04/05 10:11:57;;;;;;;1.73;1.63;;;;;;;;;;4905158;29;20172;-76
2023/04/05 10:14:22;;;;;;;1.60;1.50;;;;;;;;;;4897295;29;20035;-77
2023/04/05 10:17:06;;;;;;;1.70;1.60;;;;;;;;;;4906649;29;20071;-75
2023/04/05 10:19:50;;;;;;;2.00;1.90;;;;;;;;;;4900100;29;20024;-76
2023/04/05 10:22:22;;;;;;;1.95;1.85;;;;;;;;;;4902444;29;20044;-76
2023/04/05 10:24:53;;;;;;;1.75;1.65;;;;;;;;;;4898285;29;20032;-76
2023/04/05 10:27:26;;;;;;;3.75;1.75;;;;;;;;;;4898902;29;20135;-74
2023/04/05 10:29:51;;;;;;;2.20;2.00;;;;;;;;;;4897192;29;20033;-77
2023/04/05 10:32:20;;;;;;;2.35;2.15;;;;;;;;;;4897474;29;20039;-76
2023/04/05 10:34:50;;;;;;;2.40;2.10;;;;;;;;;;4897119;29;20044;-76
2023/04/05 10:37:36;;;;;;;2.67;2.47;;;;;;;;;;4894313;29;20020;-77
2023/04/05 10:40:02;;;;;;;2.55;2.35;;;;;;;;;;4868353;29;20498;-77
2023/04/05 10:42:32;;;;;;;2.60;2.40;;;;;;;;;;4897159;29;20030;-76
2023/04/05 10:45:01;;;;;;;2.78;2.58;;;;;;;;;;4889769;29;20024;-77
2023/04/05 10:47:27;;;;;;;2.47;2.27;;;;;;;;;;4895612;29;20031;-77
2023/04/05 10:49:54;;;;;;;2.33;2.22;;;;;;;;;;4893415;29;20308;-77
2023/04/05 10:52:19;;;;;;;2.25;2.15;;;;;;;;;;4895645;29;20020;-74
2023/04/05 10:54:45;;;;;;;2.05;1.95;;;;;;;;;;4907365;29;20034;-77
2023/04/05 10:57:10;;;;;;;2.75;2.55;;;;;;;;;;4899540;29;20036;-77
2023/04/05 10:59:40;;;;;;;2.75;2.55;;;;;;;;;;4906589;29;20039;-75
2023/04/05 11:02:05;;;;;;;3.80;2.50;;;;;;;;;;4904632;29;20020;-77
2023/04/05 11:04:32;;;;;;;5.65;2.75;;;;;;;;;;4891718;29;20024;-78
2023/04/05 11:07:10;;;;;;;3.53;3.22;;;;;;;;;;4901763;29;20071;-76
2023/04/05 11:09:37;;;;;;;3.75;3.45;;;;;;;;;;4905403;29;20032;-76
2023/04/05 11:12:02;;;;;;;3.50;3.20;;;;;;;;;;4892233;29;20043;-77
2023/04/05 11:14:34;;;;;;;3.88;3.58;;;;;;;;;;4886176;29;20105;-77
2023/04/05 11:17:00;;;;;;;6.22;3.83;;;;;;;;;;4908114;29;20919;-75
2023/04/05 11:19:44;;;;;;;4.30;3.85;;;;;;;;;;4905850;29;20565;-78
2023/04/05 11:22:09;;;;;;;5.65;3.95;;;;;;;;;;4915462;29;20423;-77
2023/04/05 11:24:56;;;;;;;3.95;3.65;;;;;;;;;;4903871;29;20036;-76
2023/04/05 11:27:27;;;;;;;4.35;3.95;;;;;;;;;;4903128;29;20028;-77
2023/04/05 11:29:53;;;;;;;4.97;4.57;;;;;;;;;;4902380;29;20526;-77
2023/04/05 11:32:18;;;;;;;7.53;4.53;;;;;;;;;;4898796;29;20024;-76
2023/04/05 11:34:44;;;;;;;5.78;4.43;;;;;;;;;;4896792;29;20095;-76
2023/04/05 11:37:09;;;;;;;6.55;4.00;;;;;;;;;;4906744;29;20494;-77
2023/04/05 11:39:37;;;;;;;4.22;3.90;;;;;;;;;;4898857;29;20562;-75
2023/04/05 11:42:03;;;;;;;4.60;4.22;;;;;;;;;;4874957;29;20453;-75
2023/04/05 11:44:45;;;;;;;4.43;4.05;;;;;;;;;;4901704;29;20850;-78
2023/04/05 11:47:10;;;;;;;3.90;3.70;;;;;;;;;;4884328;29;20706;-78
2023/04/05 11:49:37;;;;;;;4.60;4.30;;;;;;;;;;4893638;29;20032;-77
2023/04/05 11:52:29;;;;;;;6.10;4.82;;;;;;;;;;4901701;29;20499;-77
2023/04/05 11:54:56;;;;;;;4.65;4.30;;;;;;;;;;4898022;29;20120;-77
2023/04/05 11:57:22;;;;;;;5.55;4.55;;;;;;;;;;4900322;29;20952;-77
2023/04/05 11:59:51;;;;;;;4.53;4.20;;;;;;;;;;4899963;29;20119;-78
2023/04/05 12:02:17;;;;;;;4.60;4.30;;;;;;;;;;4904373;29;20510;-77
2023/04/05 12:04:42;;;;;;;5.93;4.18;;;;;;;;;;4899883;29;20031;-76
2023/04/05 12:07:13;;;;;;;4.53;4.20;;;;;;;;;;4897481;29;20079;-77
2023/04/05 12:09:57;;;;;;;5.13;4.55;;;;;;;;;;4902531;29;20036;-76
2023/04/05 12:12:23;;;;;;;4.20;3.92;;;;;;;;;;4896728;29;20067;-77
2023/04/05 12:14:49;;;;;;;4.30;3.90;;;;;;;;;;4892387;29;20118;-77
2023/04/05 12:17:14;;;;;;;4.88;4.47;;;;;;;;;;4902601;29;20028;-78
2023/04/05 12:19:40;;;;;;;4.60;4.30;;;;;;;;;;4902647;29;20032;-76
2023/04/05 12:22:05;;;;;;;5.60;4.13;;;;;;;;;;4898522;29;20036;-77
2023/04/05 12:24:31;;;;;;;4.45;4.07;;;;;;;;;;4886145;29;20025;-76
2023/04/05 12:26:56;;;;;;;4.50;4.20;;;;;;;;;;4896969;29;20060;-77
2023/04/05 12:29:21;;;;;;;5.20;4.80;;;;;;;;;;4892937;29;20070;-77
2023/04/05 12:31:49;;;;;;;3.95;3.65;;;;;;;;;;4886436;29;20495;-76
2023/04/05 12:34:22;;;;;;;4.63;4.32;;;;;;;;;;4896801;29;20612;-77
2023/04/05 12:36:47;;;;;;;5.22;4.93;;;;;;;;;;4890729;29;20032;-76
2023/04/05 12:39:15;;;;;;;4.53;4.20;;;;;;;;;;4903905;29;20475;-75
2023/04/05 12:41:40;;;;;;;4.45;4.15;;;;;;;;;;4895226;29;20051;-78
2023/04/05 12:44:11;;;;;;;5.25;4.85;;;;;;;;;;4889241;29;20847;-76
2023/04/05 12:46:43;;;;;;;4.90;4.57;;;;;;;;;;4902564;29;20016;-77
2023/04/05 12:49:11;;;;;;;5.40;5.00;;;;;;;;;;4906244;29;20083;-77
2023/04/05 12:51:40;;;;;;;4.93;4.63;;;;;;;;;;4892739;29;20410;-76
2023/04/05 12:54:06;;;;;;;4.93;4.53;;;;;;;;;;4905864;29;20063;-76
2023/04/05 12:56:31;;;;;;;4.97;4.68;;;;;;;;;;4904134;29;20115;-77
2023/04/05 12:58:57;;;;;;;5.90;5.50;;;;;;;;;;4893439;29;20123;-76
2023/04/05 13:01:22;;;;;;;6.47;5.88;;;;;;;;;;4903861;29;20071;-76
2023/04/05 13:03:49;;;;;;;5.45;5.05;;;;;;;;;;4895558;29;20035;-76
2023/04/05 13:06:14;;;;;;;5.15;4.70;;;;;;;;;;4900828;29;20035;-78
2023/04/05 13:08:39;;;;;;;6.13;5.60;;;;;;;;;;4899723;29;20021;-76
2023/04/05 13:11:05;;;;;;;5.60;5.10;;;;;;;;;;4901038;29;20024;-77
2023/04/05 13:13:30;;;;;;;5.55;5.15;;;;;;;;;;4886765;29;20491;-78
2023/04/05 13:15:55;;;;;;;5.28;4.88;;;;;;;;;;4897919;29;20512;-78
2023/04/05 13:18:21;;;;;;;5.73;5.27;;;;;;;;;;4902387;29;20028;-77
2023/04/05 13:20:46;;;;;;;6.30;5.80;;;;;;;;;;4912219;29;20997;-76
2023/04/05 13:23:11;;;;;;;5.95;5.45;;;;;;;;;;4911148;29;20051;-77
2023/04/05 13:25:40;;;;;;;5.95;5.55;;;;;;;;;;4904018;29;20031;-77
2023/04/05 13:28:06;;;;;;;6.55;6.05;;;;;;;;;;4890518;29;20474;-76
2023/04/05 13:30:31;;;;;;;9.70;5.95;;;;;;;;;;4890243;29;20087;-77
2023/04/05 13:32:56;;;;;;;5.97;5.53;;;;;;;;;;4896213;29;20249;-75
2023/04/05 13:35:22;;;;;;;4.82;4.53;;;;;;;;;;4894391;29;20036;-77
2023/04/05 13:37:48;;;;;;;5.47;5.07;;;;;;;;;;4904694;29;20024;-75
2023/04/05 13:40:15;;;;;;;5.40;4.95;;;;;;;;;;4900335;29;20032;-77
2023/04/05 13:42:40;;;;;;;5.03;4.63;;;;;;;;;;4896500;29;20024;-78
2023/04/05 13:45:06;;;;;;;5.18;4.78;;;;;;;;;;4906236;29;20028;-76
2023/04/05 13:47:31;;;;;;;5.43;5.03;;;;;;;;;;4906883;29;20519;-77
2023/04/05 13:49:56;;;;;;;5.40;4.90;;;;;;;;;;4907497;29;20079;-78
2023/04/05 13:52:22;;;;;;;5.15;4.80;;;;;;;;;;4905996;29;20033;-77
2023/04/05 13:54:47;;;;;;;5.13;4.72;;;;;;;;;;4904034;29;20028;-77
2023/04/05 13:57:13;;;;;;;5.82;5.30;;;;;;;;;;4905820;29;20059;-77
2023/04/05 13:59:38;;;;;;;5.65;5.18;;;;;;;;;;4904336;29;20485;-76
2023/04/05 14:02:04;;;;;;;5.78;5.28;;;;;;;;;;4906705;29;20020;-78
2023/04/05 14:04:29;;;;;;;5.55;5.13;;;;;;;;;;4895732;29;20851;-75
2023/04/05 14:06:55;;;;;;;5.07;4.68;;;;;;;;;;4904656;29;20063;-76
2023/04/05 14:09:20;;;;;;;5.35;5.00;;;;;;;;;;4897304;29;20388;-76
2023/04/05 14:11:45;;;;;;;5.95;5.55;;;;;;;;;;4906145;29;20020;-77
2023/04/05 14:14:10;;;;;;;5.93;5.43;;;;;;;;;;4905101;29;20038;-76
2023/04/05 14:16:36;;;;;;;6.00;5.53;;;;;;;;;;4904293;29;20076;-76
2023/04/05 14:19:02;;;;;;;6.60;6.10;;;;;;;;;;4895429;29;20020;-76
2023/04/05 14:21:27;;;;;;;6.05;5.55;;;;;;;;;;4894839;29;20036;-75
2023/04/05 14:23:55;;;;;;;7.20;6.50;;;;;;;;;;4905290;29;20506;-77
2023/04/05 14:26:21;;;;;;;7.25;6.68;;;;;;;;;;4897345;29;20134;-75
2023/04/05 14:28:47;;;;;;;7.30;6.70;;;;;;;;;;4898896;29;21899;-75
2023/04/05 14:31:12;;;;;;;7.65;7.05;;;;;;;;;;4879425;29;20048;-76
2023/04/05 14:33:37;;;;;;;7.47;6.95;;;;;;;;;;4897627;29;20043;-76
2023/04/05 14:36:03;;;;;;;6.53;6.03;;;;;;;;;;4898990;29;20534;-76
2023/04/05 14:38:28;;;;;;;9.20;6.65;;;;;;;;;;4895219;29;20538;-76